sensor_id;sensor_type;location;lat;lon;timestamp;P1;durP1;ratioP1;P2;durP2;ratioP2
10005;SDS011;5042;42.626;23.382;2023-03-14T00:00:07;7.50;;;4.60;;
10005;SDS011;5042;42.626;23.382;2023-03-14T00:02:36;7.03;;;4.27;;
10005;SDS011;5042;42.626;23.382;2023-03-14T00:05:03;7.13;;;5.00;;
10005;SDS011;5042;42.626;23.382;2023-03-14T00:07:32;7.07;;;4.97;;
10005;SDS011;5042;42.626;23.382;2023-03-14T00:10:00;4.47;;;3.80;;
10005;SDS011;5042;42.626;23.382;2023-03-14T00:12:29;4.03;;;3.20;;
10005;SDS011;5042;42.626;23.382;2023-03-14T00:14:56;3.57;;;3.07;;
10005;SDS011;5042;42.626;23.382;2023-03-14T00:17:25;3.70;;;3.03;;
10005;SDS011;5042;42.626;23.382;2023-03-14T00:19:53;3.10;;;2.83;;
10005;SDS011;5042;42.626;23.382;2023-03-14T00:22:20;4.07;;;3.20;;
10005;SDS011;5042;42.626;23.382;2023-03-14T00:24:47;5.23;;;3.03;;
10005;SDS011;5042;42.626;23.382;2023-03-14T00:27:14;3.30;;;3.00;;
10005;SDS011;5042;42.626;23.382;2023-03-14T00:29:42;4.33;;;2.53;;
10005;SDS011;5042;42.626;23.382;2023-03-14T00:32:09;3.40;;;2.90;;
10005;SDS011;5042;42.626;23.382;2023-03-14T00:34:35;4.07;;;3.23;;
10005;SDS011;5042;42.626;23.382;2023-03-14T00:37:03;5.03;;;3.00;;
10005;SDS011;5042;42.626;23.382;2023-03-14T00:39:30;3.23;;;2.63;;
10005;SDS011;5042;42.626;23.382;2023-03-14T00:41:57;3.27;;;2.97;;
10005;SDS011;5042;42.626;23.382;2023-03-14T00:44:24;4.27;;;3.50;;
10005;SDS011;5042;42.626;23.382;2023-03-14T00:46:51;3.97;;;2.83;;
10005;SDS011;5042;42.626;23.382;2023-03-14T00:49:17;5.67;;;3.43;;
10005;SDS011;5042;42.626;23.382;2023-03-14T00:51:44;4.00;;;3.00;;
10005;SDS011;5042;42.626;23.382;2023-03-14T00:54:12;3.47;;;2.93;;
10005;SDS011;5042;42.626;23.382;2023-03-14T00:56:39;4.07;;;3.43;;
10005;SDS011;5042;42.626;23.382;2023-03-14T00:59:06;6.03;;;3.50;;
10005;SDS011;5042;42.626;23.382;2023-03-14T01:01:32;4.00;;;3.13;;
10005;SDS011;5042;42.626;23.382;2023-03-14T01:03:59;3.47;;;3.00;;
10005;SDS011;5042;42.626;23.382;2023-03-14T01:06:27;3.23;;;2.93;;
10005;SDS011;5042;42.626;23.382;2023-03-14T01:08:55;3.00;;;2.50;;
10005;SDS011;5042;42.626;23.382;2023-03-14T01:11:26;5.20;;;2.33;;
10005;SDS011;5042;42.626;23.382;2023-03-14T01:13:54;4.37;;;2.97;;
10005;SDS011;5042;42.626;23.382;2023-03-14T01:16:21;6.30;;;3.07;;
10005;SDS011;5042;42.626;23.382;2023-03-14T01:18:49;4.53;;;2.90;;
10005;SDS011;5042;42.626;23.382;2023-03-14T01:21:18;4.83;;;2.97;;
10005;SDS011;5042;42.626;23.382;2023-03-14T01:23:46;4.03;;;2.90;;
10005;SDS011;5042;42.626;23.382;2023-03-14T01:26:14;3.90;;;2.50;;
10005;SDS011;5042;42.626;23.382;2023-03-14T01:28:45;3.80;;;3.20;;
10005;SDS011;5042;42.626;23.382;2023-03-14T01:31:13;3.47;;;2.77;;
10005;SDS011;5042;42.626;23.382;2023-03-14T01:33:40;3.67;;;2.83;;
10005;SDS011;5042;42.626;23.382;2023-03-14T01:36:07;4.30;;;3.07;;
10005;SDS011;5042;42.626;23.382;2023-03-14T01:38:35;7.60;;;2.93;;
10005;SDS011;5042;42.626;23.382;2023-03-14T01:41:03;3.23;;;2.90;;
10005;SDS011;5042;42.626;23.382;2023-03-14T01:43:31;7.23;;;4.17;;
10005;SDS011;5042;42.626;23.382;2023-03-14T01:48:53;3.50;;;2.97;;
10005;SDS011;5042;42.626;23.382;2023-03-14T01:51:29;5.23;;;3.53;;
10005;SDS011;5042;42.626;23.382;2023-03-14T01:54:02;8.07;;;3.77;;
10005;SDS011;5042;42.626;23.382;2023-03-14T01:56:33;6.20;;;4.03;;
10005;SDS011;5042;42.626;23.382;2023-03-14T01:59:02;5.23;;;4.17;;
10005;SDS011;5042;42.626;23.382;2023-03-14T02:01:34;7.67;;;4.83;;
10005;SDS011;5042;42.626;23.382;2023-03-14T02:04:02;8.17;;;5.30;;
10005;SDS011;5042;42.626;23.382;2023-03-14T02:06:33;7.30;;;5.07;;
10005;SDS011;5042;42.626;23.382;2023-03-14T02:09:06;9.13;;;5.60;;
10005;SDS011;5042;42.626;23.382;2023-03-14T02:11:33;7.33;;;5.40;;
10005;SDS011;5042;42.626;23.382;2023-03-14T02:14:00;10.47;;;6.07;;
10005;SDS011;5042;42.626;23.382;2023-03-14T02:16:27;9.13;;;5.70;;
10005;SDS011;5042;42.626;23.382;2023-03-14T02:18:55;8.43;;;5.93;;
10005;SDS011;5042;42.626;23.382;2023-03-14T02:21:23;9.37;;;6.17;;
10005;SDS011;5042;42.626;23.382;2023-03-14T02:24:03;7.93;;;5.17;;
10005;SDS011;5042;42.626;23.382;2023-03-14T02:26:36;8.97;;;5.50;;
10005;SDS011;5042;42.626;23.382;2023-03-14T02:29:08;8.83;;;5.73;;
10005;SDS011;5042;42.626;23.382;2023-03-14T02:31:35;11.10;;;5.90;;
10005;SDS011;5042;42.626;23.382;2023-03-14T02:34:02;11.10;;;6.27;;
10005;SDS011;5042;42.626;23.382;2023-03-14T02:36:30;9.10;;;6.00;;
10005;SDS011;5042;42.626;23.382;2023-03-14T02:38:59;9.00;;;4.37;;
10005;SDS011;5042;42.626;23.382;2023-03-14T02:41:32;6.33;;;4.60;;
10005;SDS011;5042;42.626;23.382;2023-03-14T02:43:59;8.77;;;5.17;;
10005;SDS011;5042;42.626;23.382;2023-03-14T02:46:28;5.57;;;4.20;;
10005;SDS011;5042;42.626;23.382;2023-03-14T02:48:56;6.47;;;4.40;;
10005;SDS011;5042;42.626;23.382;2023-03-14T02:51:28;4.57;;;3.73;;
10005;SDS011;5042;42.626;23.382;2023-03-14T02:53:55;4.40;;;3.60;;
10005;SDS011;5042;42.626;23.382;2023-03-14T02:56:22;6.10;;;4.33;;
10005;SDS011;5042;42.626;23.382;2023-03-14T02:58:49;5.43;;;3.97;;
10005;SDS011;5042;42.626;23.382;2023-03-14T03:01:16;6.20;;;4.33;;
10005;SDS011;5042;42.626;23.382;2023-03-14T03:03:44;7.77;;;4.47;;
10005;SDS011;5042;42.626;23.382;2023-03-14T03:06:10;9.40;;;5.17;;
10005;SDS011;5042;42.626;23.382;2023-03-14T03:08:37;9.20;;;5.03;;
10005;SDS011;5042;42.626;23.382;2023-03-14T03:11:04;10.10;;;5.77;;
10005;SDS011;5042;42.626;23.382;2023-03-14T03:13:32;8.67;;;5.93;;
10005;SDS011;5042;42.626;23.382;2023-03-14T03:15:58;12.67;;;6.40;;
10005;SDS011;5042;42.626;23.382;2023-03-14T03:18:25;8.10;;;5.97;;
10005;SDS011;5042;42.626;23.382;2023-03-14T03:20:53;8.50;;;6.00;;
10005;SDS011;5042;42.626;23.382;2023-03-14T03:23:20;10.97;;;6.03;;
10005;SDS011;5042;42.626;23.382;2023-03-14T03:25:49;9.57;;;5.70;;
10005;SDS011;5042;42.626;23.382;2023-03-14T03:28:17;10.20;;;6.10;;
10005;SDS011;5042;42.626;23.382;2023-03-14T03:30:44;8.70;;;6.23;;
10005;SDS011;5042;42.626;23.382;2023-03-14T03:33:11;8.27;;;5.27;;
10005;SDS011;5042;42.626;23.382;2023-03-14T03:35:42;11.10;;;6.27;;
10005;SDS011;5042;42.626;23.382;2023-03-14T03:38:11;6.93;;;5.40;;
10005;SDS011;5042;42.626;23.382;2023-03-14T03:40:38;6.83;;;5.40;;
10005;SDS011;5042;42.626;23.382;2023-03-14T03:43:05;8.93;;;5.20;;
10005;SDS011;5042;42.626;23.382;2023-03-14T03:45:32;7.13;;;4.97;;
10005;SDS011;5042;42.626;23.382;2023-03-14T03:47:59;6.57;;;4.90;;
10005;SDS011;5042;42.626;23.382;2023-03-14T03:50:25;8.70;;;5.40;;
10005;SDS011;5042;42.626;23.382;2023-03-14T03:52:52;7.33;;;5.13;;
10005;SDS011;5042;42.626;23.382;2023-03-14T03:55:20;6.40;;;5.53;;
10005;SDS011;5042;42.626;23.382;2023-03-14T03:57:47;7.70;;;5.13;;
10005;SDS011;5042;42.626;23.382;2023-03-14T04:00:14;6.37;;;4.93;;
10005;SDS011;5042;42.626;23.382;2023-03-14T04:02:41;6.57;;;4.80;;
10005;SDS011;5042;42.626;23.382;2023-03-14T04:05:08;9.17;;;6.17;;
10005;SDS011;5042;42.626;23.382;2023-03-14T04:07:35;9.80;;;6.20;;
10005;SDS011;5042;42.626;23.382;2023-03-14T04:10:02;8.43;;;6.23;;
10005;SDS011;5042;42.626;23.382;2023-03-14T04:12:30;5.63;;;4.50;;
10005;SDS011;5042;42.626;23.382;2023-03-14T04:14:57;6.87;;;4.63;;
10005;SDS011;5042;42.626;23.382;2023-03-14T04:17:23;7.10;;;4.00;;
10005;SDS011;5042;42.626;23.382;2023-03-14T04:19:50;6.17;;;4.60;;
10005;SDS011;5042;42.626;23.382;2023-03-14T04:22:18;7.60;;;3.60;;
10005;SDS011;5042;42.626;23.382;2023-03-14T04:24:45;5.53;;;4.50;;
10005;SDS011;5042;42.626;23.382;2023-03-14T04:27:12;5.00;;;4.37;;
10005;SDS011;5042;42.626;23.382;2023-03-14T04:29:41;7.07;;;5.10;;
10005;SDS011;5042;42.626;23.382;2023-03-14T04:32:07;6.00;;;4.53;;
10005;SDS011;5042;42.626;23.382;2023-03-14T04:34:34;7.40;;;5.17;;
10005;SDS011;5042;42.626;23.382;2023-03-14T04:37:01;8.53;;;5.73;;
10005;SDS011;5042;42.626;23.382;2023-03-14T04:39:28;6.90;;;4.73;;
10005;SDS011;5042;42.626;23.382;2023-03-14T04:41:55;5.87;;;4.43;;
10005;SDS011;5042;42.626;23.382;2023-03-14T04:44:21;8.60;;;4.67;;
10005;SDS011;5042;42.626;23.382;2023-03-14T04:46:49;8.20;;;4.33;;
10005;SDS011;5042;42.626;23.382;2023-03-14T04:49:16;4.80;;;4.07;;
10005;SDS011;5042;42.626;23.382;2023-03-14T04:51:43;4.23;;;3.83;;
10005;SDS011;5042;42.626;23.382;2023-03-14T04:54:10;4.43;;;3.63;;
10005;SDS011;5042;42.626;23.382;2023-03-14T04:56:36;5.50;;;4.00;;
10005;SDS011;5042;42.626;23.382;2023-03-14T04:59:03;4.47;;;3.63;;
10005;SDS011;5042;42.626;23.382;2023-03-14T05:01:30;5.23;;;4.07;;
10005;SDS011;5042;42.626;23.382;2023-03-14T05:03:58;5.03;;;4.10;;
10005;SDS011;5042;42.626;23.382;2023-03-14T05:06:25;4.17;;;3.07;;
10005;SDS011;5042;42.626;23.382;2023-03-14T05:08:52;5.27;;;3.47;;
10005;SDS011;5042;42.626;23.382;2023-03-14T05:11:18;5.20;;;4.10;;
10005;SDS011;5042;42.626;23.382;2023-03-14T05:13:45;7.10;;;4.10;;
10005;SDS011;5042;42.626;23.382;2023-03-14T05:16:12;5.03;;;4.53;;
10005;SDS011;5042;42.626;23.382;2023-03-14T05:18:39;4.17;;;3.77;;
10005;SDS011;5042;42.626;23.382;2023-03-14T05:21:07;3.80;;;3.27;;
10005;SDS011;5042;42.626;23.382;2023-03-14T05:23:34;3.83;;;3.20;;
10005;SDS011;5042;42.626;23.382;2023-03-14T05:26:00;7.63;;;3.90;;
10005;SDS011;5042;42.626;23.382;2023-03-14T05:28:27;4.77;;;3.77;;
10005;SDS011;5042;42.626;23.382;2023-03-14T05:30:54;4.27;;;3.37;;
10005;SDS011;5042;42.626;23.382;2023-03-14T05:33:21;4.93;;;3.83;;
10005;SDS011;5042;42.626;23.382;2023-03-14T05:35:47;4.50;;;3.30;;
10005;SDS011;5042;42.626;23.382;2023-03-14T05:38:16;3.97;;;3.57;;
10005;SDS011;5042;42.626;23.382;2023-03-14T05:40:44;11.63;;;7.70;;
10005;SDS011;5042;42.626;23.382;2023-03-14T05:43:11;6.97;;;4.10;;
10005;SDS011;5042;42.626;23.382;2023-03-14T05:45:38;4.27;;;3.70;;
10005;SDS011;5042;42.626;23.382;2023-03-14T05:48:05;5.90;;;3.40;;
10005;SDS011;5042;42.626;23.382;2023-03-14T05:50:32;9.13;;;3.93;;
10005;SDS011;5042;42.626;23.382;2023-03-14T05:52:58;4.93;;;3.27;;
10005;SDS011;5042;42.626;23.382;2023-03-14T05:55:26;5.47;;;3.87;;
10005;SDS011;5042;42.626;23.382;2023-03-14T05:57:53;9.17;;;4.23;;
10005;SDS011;5042;42.626;23.382;2023-03-14T06:00:21;5.00;;;4.40;;
10005;SDS011;5042;42.626;23.382;2023-03-14T06:02:48;6.20;;;4.43;;
10005;SDS011;5042;42.626;23.382;2023-03-14T06:05:15;6.40;;;4.43;;
10005;SDS011;5042;42.626;23.382;2023-03-14T06:07:41;5.60;;;4.23;;
10005;SDS011;5042;42.626;23.382;2023-03-14T06:10:09;6.60;;;4.13;;
10005;SDS011;5042;42.626;23.382;2023-03-14T06:12:37;4.90;;;4.20;;
10005;SDS011;5042;42.626;23.382;2023-03-14T06:15:04;4.90;;;4.40;;
10005;SDS011;5042;42.626;23.382;2023-03-14T06:17:32;4.37;;;3.97;;
10005;SDS011;5042;42.626;23.382;2023-03-14T06:19:59;4.80;;;4.00;;
10005;SDS011;5042;42.626;23.382;2023-03-14T06:22:25;6.20;;;4.30;;
10005;SDS011;5042;42.626;23.382;2023-03-14T06:24:52;6.80;;;4.23;;
10005;SDS011;5042;42.626;23.382;2023-03-14T06:27:21;6.17;;;4.40;;
10005;SDS011;5042;42.626;23.382;2023-03-14T06:29:50;6.07;;;3.97;;
10005;SDS011;5042;42.626;23.382;2023-03-14T06:32:16;4.87;;;3.70;;
10005;SDS011;5042;42.626;23.382;2023-03-14T06:34:44;7.17;;;4.03;;
10005;SDS011;5042;42.626;23.382;2023-03-14T06:37:11;5.33;;;4.10;;
10005;SDS011;5042;42.626;23.382;2023-03-14T06:39:37;5.37;;;4.47;;
10005;SDS011;5042;42.626;23.382;2023-03-14T06:42:04;9.10;;;5.10;;
10005;SDS011;5042;42.626;23.382;2023-03-14T06:44:31;4.37;;;3.97;;
10005;SDS011;5042;42.626;23.382;2023-03-14T06:47:00;4.90;;;4.37;;
10005;SDS011;5042;42.626;23.382;2023-03-14T06:49:26;5.40;;;4.27;;
10005;SDS011;5042;42.626;23.382;2023-03-14T06:51:53;5.70;;;4.23;;
10005;SDS011;5042;42.626;23.382;2023-03-14T06:54:20;5.23;;;4.13;;
10005;SDS011;5042;42.626;23.382;2023-03-14T06:56:47;5.90;;;4.20;;
10005;SDS011;5042;42.626;23.382;2023-03-14T06:59:13;4.33;;;3.73;;
10005;SDS011;5042;42.626;23.382;2023-03-14T07:01:40;4.30;;;3.90;;
10005;SDS011;5042;42.626;23.382;2023-03-14T07:04:09;3.80;;;3.40;;
10005;SDS011;5042;42.626;23.382;2023-03-14T07:06:36;4.30;;;3.57;;
10005;SDS011;5042;42.626;23.382;2023-03-14T07:09:04;4.57;;;3.90;;
10005;SDS011;5042;42.626;23.382;2023-03-14T07:11:31;4.90;;;3.50;;
10005;SDS011;5042;42.626;23.382;2023-03-14T07:13:58;5.67;;;4.20;;
10005;SDS011;5042;42.626;23.382;2023-03-14T07:16:25;5.87;;;4.27;;
10005;SDS011;5042;42.626;23.382;2023-03-14T07:18:53;5.70;;;4.63;;
10005;SDS011;5042;42.626;23.382;2023-03-14T07:21:21;5.27;;;4.67;;
10005;SDS011;5042;42.626;23.382;2023-03-14T07:23:48;8.53;;;5.63;;
10005;SDS011;5042;42.626;23.382;2023-03-14T07:26:15;8.13;;;5.47;;
10005;SDS011;5042;42.626;23.382;2023-03-14T07:28:42;8.27;;;5.53;;
10005;SDS011;5042;42.626;23.382;2023-03-14T07:31:08;5.50;;;5.00;;
10005;SDS011;5042;42.626;23.382;2023-03-14T07:33:35;7.87;;;5.47;;
10005;SDS011;5042;42.626;23.382;2023-03-14T07:36:02;8.77;;;5.17;;
10005;SDS011;5042;42.626;23.382;2023-03-14T07:38:31;7.20;;;5.03;;
10005;SDS011;5042;42.626;23.382;2023-03-14T07:40:58;13.10;;;9.07;;
10005;SDS011;5042;42.626;23.382;2023-03-14T07:43:26;7.53;;;5.00;;
10005;SDS011;5042;42.626;23.382;2023-03-14T07:45:53;5.43;;;4.87;;
10005;SDS011;5042;42.626;23.382;2023-03-14T07:48:20;7.23;;;5.37;;
10005;SDS011;5042;42.626;23.382;2023-03-14T07:50:50;7.33;;;4.77;;
10005;SDS011;5042;42.626;23.382;2023-03-14T07:53:17;8.43;;;5.10;;
10005;SDS011;5042;42.626;23.382;2023-03-14T07:55:46;7.33;;;5.00;;
10005;SDS011;5042;42.626;23.382;2023-03-14T07:58:13;6.80;;;4.63;;
10005;SDS011;5042;42.626;23.382;2023-03-14T08:00:40;5.33;;;4.67;;
10005;SDS011;5042;42.626;23.382;2023-03-14T08:03:07;6.57;;;5.13;;
10005;SDS011;5042;42.626;23.382;2023-03-14T08:05:34;6.73;;;5.10;;
10005;SDS011;5042;42.626;23.382;2023-03-14T08:08:01;7.20;;;5.27;;
10005;SDS011;5042;42.626;23.382;2023-03-14T08:10:29;7.33;;;5.53;;
10005;SDS011;5042;42.626;23.382;2023-03-14T08:12:57;6.70;;;5.73;;
10005;SDS011;5042;42.626;23.382;2023-03-14T08:15:26;7.10;;;5.90;;
10005;SDS011;5042;42.626;23.382;2023-03-14T08:17:54;8.27;;;4.67;;
10005;SDS011;5042;42.626;23.382;2023-03-14T08:20:22;8.03;;;5.27;;
10005;SDS011;5042;42.626;23.382;2023-03-14T08:22:50;6.23;;;5.47;;
10005;SDS011;5042;42.626;23.382;2023-03-14T08:25:17;8.23;;;5.80;;
10005;SDS011;5042;42.626;23.382;2023-03-14T08:27:44;7.43;;;5.77;;
10005;SDS011;5042;42.626;23.382;2023-03-14T08:30:13;10.03;;;6.30;;
10005;SDS011;5042;42.626;23.382;2023-03-14T08:32:41;11.23;;;8.20;;
10005;SDS011;5042;42.626;23.382;2023-03-14T08:35:08;9.40;;;7.50;;
10005;SDS011;5042;42.626;23.382;2023-03-14T08:37:35;12.37;;;7.53;;
10005;SDS011;5042;42.626;23.382;2023-03-14T08:40:03;10.20;;;7.13;;
10005;SDS011;5042;42.626;23.382;2023-03-14T08:42:32;10.80;;;8.17;;
10005;SDS011;5042;42.626;23.382;2023-03-14T08:44:59;10.40;;;7.97;;
10005;SDS011;5042;42.626;23.382;2023-03-14T08:47:27;10.40;;;7.60;;
10005;SDS011;5042;42.626;23.382;2023-03-14T08:49:54;12.93;;;8.17;;
10005;SDS011;5042;42.626;23.382;2023-03-14T08:52:21;13.73;;;7.27;;
10005;SDS011;5042;42.626;23.382;2023-03-14T08:54:48;10.77;;;7.63;;
10005;SDS011;5042;42.626;23.382;2023-03-14T08:57:15;10.40;;;7.60;;
10005;SDS011;5042;42.626;23.382;2023-03-14T08:59:41;9.90;;;7.97;;
10005;SDS011;5042;42.626;23.382;2023-03-14T09:02:09;13.00;;;8.40;;
10005;SDS011;5042;42.626;23.382;2023-03-14T09:04:38;9.48;;;7.35;;
10005;SDS011;5042;42.626;23.382;2023-03-14T09:07:04;11.07;;;8.00;;
10005;SDS011;5042;42.626;23.382;2023-03-14T09:09:31;11.17;;;7.17;;
10005;SDS011;5042;42.626;23.382;2023-03-14T09:11:58;10.27;;;8.37;;
10005;SDS011;5042;42.626;23.382;2023-03-14T09:14:25;10.13;;;6.83;;
10005;SDS011;5042;42.626;23.382;2023-03-14T09:16:52;8.20;;;7.00;;
10005;SDS011;5042;42.626;23.382;2023-03-14T09:19:19;10.47;;;7.40;;
10005;SDS011;5042;42.626;23.382;2023-03-14T09:21:47;12.73;;;5.93;;
10005;SDS011;5042;42.626;23.382;2023-03-14T09:24:13;11.73;;;6.73;;
10005;SDS011;5042;42.626;23.382;2023-03-14T09:26:40;8.87;;;7.10;;
10005;SDS011;5042;42.626;23.382;2023-03-14T09:29:07;8.57;;;6.53;;
10005;SDS011;5042;42.626;23.382;2023-03-14T09:31:34;10.47;;;6.57;;
10005;SDS011;5042;42.626;23.382;2023-03-14T09:34:01;6.40;;;5.03;;
10005;SDS011;5042;42.626;23.382;2023-03-14T09:36:28;10.00;;;5.23;;
10005;SDS011;5042;42.626;23.382;2023-03-14T09:38:56;5.33;;;4.20;;
10005;SDS011;5042;42.626;23.382;2023-03-14T09:41:23;5.83;;;4.50;;
10005;SDS011;5042;42.626;23.382;2023-03-14T09:43:54;7.47;;;4.40;;
10005;SDS011;5042;42.626;23.382;2023-03-14T09:46:27;4.80;;;4.17;;
10005;SDS011;5042;42.626;23.382;2023-03-14T09:48:54;5.80;;;4.67;;
10005;SDS011;5042;42.626;23.382;2023-03-14T09:51:21;5.57;;;4.53;;
10005;SDS011;5042;42.626;23.382;2023-03-14T09:53:49;5.57;;;3.97;;
10005;SDS011;5042;42.626;23.382;2023-03-14T09:56:18;5.53;;;4.33;;
10005;SDS011;5042;42.626;23.382;2023-03-14T09:58:48;6.33;;;4.60;;
10005;SDS011;5042;42.626;23.382;2023-03-14T10:01:18;7.50;;;4.80;;
10005;SDS011;5042;42.626;23.382;2023-03-14T10:03:49;5.53;;;4.90;;
10005;SDS011;5042;42.626;23.382;2023-03-14T10:06:20;5.43;;;4.60;;
10005;SDS011;5042;42.626;23.382;2023-03-14T10:08:51;4.93;;;4.43;;
10005;SDS011;5042;42.626;23.382;2023-03-14T10:11:20;5.67;;;4.40;;
10005;SDS011;5042;42.626;23.382;2023-03-14T10:13:48;6.00;;;4.57;;
10005;SDS011;5042;42.626;23.382;2023-03-14T10:16:19;5.00;;;4.40;;
10005;SDS011;5042;42.626;23.382;2023-03-14T10:18:58;4.53;;;3.67;;
10005;SDS011;5042;42.626;23.382;2023-03-14T10:21:29;6.90;;;5.00;;
10005;SDS011;5042;42.626;23.382;2023-03-14T10:24:07;4.87;;;4.17;;
10005;SDS011;5042;42.626;23.382;2023-03-14T10:26:36;4.77;;;3.90;;
10005;SDS011;5042;42.626;23.382;2023-03-14T10:29:03;4.77;;;4.27;;
10005;SDS011;5042;42.626;23.382;2023-03-14T10:31:47;4.60;;;3.93;;
10005;SDS011;5042;42.626;23.382;2023-03-14T10:34:17;5.13;;;4.17;;
10005;SDS011;5042;42.626;23.382;2023-03-14T10:36:51;4.40;;;4.00;;
10005;SDS011;5042;42.626;23.382;2023-03-14T10:39:27;5.07;;;3.30;;
10005;SDS011;5042;42.626;23.382;2023-03-14T10:42:04;4.25;;;3.40;;
10005;SDS011;5042;42.626;23.382;2023-03-14T10:44:37;5.60;;;3.13;;
10005;SDS011;5042;42.626;23.382;2023-03-14T10:47:05;7.23;;;3.43;;
10005;SDS011;5042;42.626;23.382;2023-03-14T10:49:32;8.13;;;4.03;;
10005;SDS011;5042;42.626;23.382;2023-03-14T10:52:01;3.38;;;2.85;;
10005;SDS011;5042;42.626;23.382;2023-03-14T10:54:38;3.17;;;2.72;;
10005;SDS011;5042;42.626;23.382;2023-03-14T10:57:07;3.13;;;2.83;;
10005;SDS011;5042;42.626;23.382;2023-03-14T10:59:34;2.93;;;2.33;;
10005;SDS011;5042;42.626;23.382;2023-03-14T11:02:03;3.23;;;2.70;;
10005;SDS011;5042;42.626;23.382;2023-03-14T11:04:44;2.72;;;2.30;;
10005;SDS011;5042;42.626;23.382;2023-03-14T11:07:22;2.60;;;2.40;;
10005;SDS011;5042;42.626;23.382;2023-03-14T11:09:54;2.70;;;2.50;;
10005;SDS011;5042;42.626;23.382;2023-03-14T11:12:36;3.90;;;2.17;;
10005;SDS011;5042;42.626;23.382;2023-03-14T11:15:10;2.83;;;2.57;;
10005;SDS011;5042;42.626;23.382;2023-03-14T11:17:46;2.83;;;2.63;;
10005;SDS011;5042;42.626;23.382;2023-03-14T11:20:24;3.80;;;2.37;;
10005;SDS011;5042;42.626;23.382;2023-03-14T11:23:02;5.60;;;2.60;;
10005;SDS011;5042;42.626;23.382;2023-03-14T11:25:36;2.35;;;2.15;;
10005;SDS011;5042;42.626;23.382;2023-03-14T11:28:15;3.08;;;2.42;;
10005;SDS011;5042;42.626;23.382;2023-03-14T11:30:47;2.60;;;2.37;;
10005;SDS011;5042;42.626;23.382;2023-03-14T11:33:18;2.88;;;2.50;;
10005;SDS011;5042;42.626;23.382;2023-03-14T11:35:53;2.00;;;1.85;;
10005;SDS011;5042;42.626;23.382;2023-03-14T11:38:29;2.33;;;2.13;;
10005;SDS011;5042;42.626;23.382;2023-03-14T11:41:00;3.33;;;2.25;;
10005;SDS011;5042;42.626;23.382;2023-03-14T11:43:29;3.05;;;2.35;;
10005;SDS011;5042;42.626;23.382;2023-03-14T11:46:03;2.47;;;2.22;;
10005;SDS011;5042;42.626;23.382;2023-03-14T11:48:36;2.67;;;2.45;;
10005;SDS011;5042;42.626;23.382;2023-03-14T11:51:09;2.50;;;2.30;;
10005;SDS011;5042;42.626;23.382;2023-03-14T11:53:44;2.45;;;2.17;;
10005;SDS011;5042;42.626;23.382;2023-03-14T11:56:18;2.92;;;2.22;;
10005;SDS011;5042;42.626;23.382;2023-03-14T11:58:54;2.30;;;2.10;;
10005;SDS011;5042;42.626;23.382;2023-03-14T12:01:27;2.10;;;1.95;;
10005;SDS011;5042;42.626;23.382;2023-03-14T12:04:01;2.47;;;2.03;;
10005;SDS011;5042;42.626;23.382;2023-03-14T12:06:35;3.35;;;2.30;;
10005;SDS011;5042;42.626;23.382;2023-03-14T12:09:11;3.85;;;2.28;;
10005;SDS011;5042;42.626;23.382;2023-03-14T12:11:40;2.47;;;2.28;;
10005;SDS011;5042;42.626;23.382;2023-03-14T12:14:20;3.58;;;2.00;;
10005;SDS011;5042;42.626;23.382;2023-03-14T12:16:52;2.22;;;2.03;;
10005;SDS011;5042;42.626;23.382;2023-03-14T12:19:32;2.03;;;1.83;;
10005;SDS011;5042;42.626;23.382;2023-03-14T12:22:05;2.65;;;2.00;;
10005;SDS011;5042;42.626;23.382;2023-03-14T12:24:41;2.28;;;1.90;;
10005;SDS011;5042;42.626;23.382;2023-03-14T12:30:22;3.15;;;2.05;;
10005;SDS011;5042;42.626;23.382;2023-03-14T12:36:01;1.65;;;1.55;;
10005;SDS011;5042;42.626;23.382;2023-03-14T12:38:47;1.38;;;1.27;;
10005;SDS011;5042;42.626;23.382;2023-03-14T12:41:23;1.50;;;1.40;;
10005;SDS011;5042;42.626;23.382;2023-03-14T12:43:54;1.65;;;1.55;;
10005;SDS011;5042;42.626;23.382;2023-03-14T12:46:22;2.00;;;1.50;;
10005;SDS011;5042;42.626;23.382;2023-03-14T12:48:55;1.60;;;1.50;;
10005;SDS011;5042;42.626;23.382;2023-03-14T12:51:34;2.95;;;1.75;;
10005;SDS011;5042;42.626;23.382;2023-03-14T12:54:09;2.13;;;1.67;;
10005;SDS011;5042;42.626;23.382;2023-03-14T12:56:52;1.52;;;1.40;;
10005;SDS011;5042;42.626;23.382;2023-03-14T12:59:29;2.95;;;1.45;;
10005;SDS011;5042;42.626;23.382;2023-03-14T13:02:00;2.55;;;1.50;;
10005;SDS011;5042;42.626;23.382;2023-03-14T13:04:43;2.08;;;1.88;;
10005;SDS011;5042;42.626;23.382;2023-03-14T13:07:12;2.10;;;1.90;;
10005;SDS011;5042;42.626;23.382;2023-03-14T13:09:49;1.60;;;1.50;;
10005;SDS011;5042;42.626;23.382;2023-03-14T13:12:22;2.53;;;1.67;;
10005;SDS011;5042;42.626;23.382;2023-03-14T13:14:57;1.77;;;1.63;;
10005;SDS011;5042;42.626;23.382;2023-03-14T13:17:27;1.80;;;1.30;;
10005;SDS011;5042;42.626;23.382;2023-03-14T13:19:57;1.63;;;1.30;;
10005;SDS011;5042;42.626;23.382;2023-03-14T13:22:28;1.60;;;1.50;;
10005;SDS011;5042;42.626;23.382;2023-03-14T13:24:59;1.60;;;1.50;;
10005;SDS011;5042;42.626;23.382;2023-03-14T13:27:26;1.73;;;1.50;;
10005;SDS011;5042;42.626;23.382;2023-03-14T13:29:56;3.85;;;1.42;;
10005;SDS011;5042;42.626;23.382;2023-03-14T13:32:27;1.30;;;1.20;;
10005;SDS011;5042;42.626;23.382;2023-03-14T13:34:55;1.55;;;1.40;;
10005;SDS011;5042;42.626;23.382;2023-03-14T13:37:23;1.60;;;1.50;;
10005;SDS011;5042;42.626;23.382;2023-03-14T13:39:51;1.58;;;1.48;;
10005;SDS011;5042;42.626;23.382;2023-03-14T13:42:20;1.23;;;1.13;;
10005;SDS011;5042;42.626;23.382;2023-03-14T13:44:50;1.83;;;1.70;;
10005;SDS011;5042;42.626;23.382;2023-03-14T13:47:18;2.35;;;1.60;;
10005;SDS011;5042;42.626;23.382;2023-03-14T13:49:47;1.45;;;1.35;;
10005;SDS011;5042;42.626;23.382;2023-03-14T13:52:22;3.70;;;1.10;;
10005;SDS011;5042;42.626;23.382;2023-03-14T13:54:54;1.60;;;1.40;;
10005;SDS011;5042;42.626;23.382;2023-03-14T13:57:21;1.35;;;1.25;;
10005;SDS011;5042;42.626;23.382;2023-03-14T13:59:58;2.00;;;1.23;;
10005;SDS011;5042;42.626;23.382;2023-03-14T14:02:29;1.50;;;1.40;;
10005;SDS011;5042;42.626;23.382;2023-03-14T14:04:58;3.65;;;1.88;;
10005;SDS011;5042;42.626;23.382;2023-03-14T14:07:26;2.67;;;1.52;;
10005;SDS011;5042;42.626;23.382;2023-03-14T14:09:54;2.17;;;1.30;;
10005;SDS011;5042;42.626;23.382;2023-03-14T14:12:22;1.55;;;1.45;;
10005;SDS011;5042;42.626;23.382;2023-03-14T14:14:54;1.52;;;1.38;;
10005;SDS011;5042;42.626;23.382;2023-03-14T14:17:25;1.98;;;1.40;;
10005;SDS011;5042;42.626;23.382;2023-03-14T14:19:54;1.50;;;1.40;;
10005;SDS011;5042;42.626;23.382;2023-03-14T14:22:23;1.67;;;1.38;;
10005;SDS011;5042;42.626;23.382;2023-03-14T14:24:51;1.60;;;1.50;;
10005;SDS011;5042;42.626;23.382;2023-03-14T14:27:19;1.35;;;1.25;;
10005;SDS011;5042;42.626;23.382;2023-03-14T14:29:58;1.58;;;1.40;;
10005;SDS011;5042;42.626;23.382;2023-03-14T14:32:27;1.42;;;1.30;;
10005;SDS011;5042;42.626;23.382;2023-03-14T14:35:01;1.40;;;1.30;;
10005;SDS011;5042;42.626;23.382;2023-03-14T14:37:31;2.20;;;1.35;;
10005;SDS011;5042;42.626;23.382;2023-03-14T14:39:59;4.32;;;1.50;;
10005;SDS011;5042;42.626;23.382;2023-03-14T14:42:32;1.92;;;1.48;;
10005;SDS011;5042;42.626;23.382;2023-03-14T14:44:59;1.42;;;1.20;;
10005;SDS011;5042;42.626;23.382;2023-03-14T14:47:29;3.17;;;1.30;;
10005;SDS011;5042;42.626;23.382;2023-03-14T14:49:59;3.70;;;1.25;;
10005;SDS011;5042;42.626;23.382;2023-03-14T14:52:44;1.85;;;1.40;;
10005;SDS011;5042;42.626;23.382;2023-03-14T14:55:13;1.88;;;1.20;;
10005;SDS011;5042;42.626;23.382;2023-03-14T14:57:48;2.40;;;1.25;;
10005;SDS011;5042;42.626;23.382;2023-03-14T15:00:18;0.80;;;0.80;;
10005;SDS011;5042;42.626;23.382;2023-03-14T15:02:47;0.93;;;0.93;;
10005;SDS011;5042;42.626;23.382;2023-03-14T15:05:18;1.23;;;1.13;;